createdAt,value
2022-11-21T00:01:20.771Z,71.41
2022-11-21T00:03:52.271Z,71.37
2022-11-21T00:06:21.012Z,69.39
2022-11-21T00:09:08.820Z,68.42
2022-11-21T00:11:36.812Z,68.04
2022-11-21T00:14:05.056Z,69.18
2022-11-21T00:16:34.325Z,68.46
2022-11-21T00:19:24.500Z,69.01
2022-11-21T00:21:52.523Z,68.61
2022-11-21T00:24:20.692Z,67.67
2022-11-21T00:26:48.408Z,67.94
2022-11-21T00:29:17.632Z,68.29
2022-11-21T00:31:45.893Z,68.33
2022-11-21T00:34:17.106Z,68.23
2022-11-21T00:36:46.738Z,67.46
2022-11-21T00:39:15.432Z,67.27
2022-11-21T00:41:43.738Z,68.25
2022-11-21T00:44:15.493Z,69.00
2022-11-21T00:46:43.078Z,68.40
2022-11-21T00:49:17.855Z,68.84
2022-11-21T00:51:45.566Z,67.68
2022-11-21T00:54:13.982Z,68.28
2022-11-21T00:56:45.212Z,67.64
2022-11-21T00:59:14.147Z,67.23
2022-11-21T01:01:41.958Z,68.48
2022-11-21T01:04:09.817Z,69.52
2022-11-21T01:06:38.826Z,68.39
2022-11-21T01:09:07.350Z,68.13
2022-11-21T01:11:35.842Z,68.44
2022-11-21T01:14:04.710Z,67.83
2022-11-21T01:16:32.820Z,67.20
2022-11-21T01:19:00.889Z,66.88
2022-11-21T01:21:31.609Z,67.05
2022-11-21T01:24:00.272Z,66.85
2022-11-21T01:26:30.467Z,66.59
2022-11-21T01:29:18.866Z,66.20
2022-11-21T01:31:47.291Z,65.87
2022-11-21T01:34:16.299Z,66.40
2022-11-21T01:36:44.380Z,66.93
2022-11-21T01:39:13.860Z,66.79
2022-11-21T01:41:45.957Z,66.54
2022-11-21T01:44:18.197Z,65.84
2022-11-21T01:46:47.491Z,65.80
2022-11-21T01:49:18.302Z,66.87
2022-11-21T01:51:58.228Z,66.21
2022-11-21T01:54:40.036Z,65.57
2022-11-21T01:57:19.250Z,65.73
2022-11-21T01:59:54.412Z,65.85
2022-11-21T02:02:27.821Z,65.97
2022-11-21T02:04:58.016Z,66.22
2022-11-21T02:07:33.161Z,65.58
2022-11-21T02:10:04.450Z,65.82
2022-11-21T02:12:38.542Z,65.72
2022-11-21T02:15:29.142Z,66.41
2022-11-21T02:17:57.340Z,67.44
2022-11-21T02:20:29.072Z,66.71
2022-11-21T02:23:35.396Z,67.76
2022-11-21T02:26:23.238Z,67.37
2022-11-21T02:28:51.800Z,70.37
2022-11-21T02:31:19.647Z,68.55
2022-11-21T02:33:47.368Z,67.62
2022-11-21T02:36:35.224Z,67.25
2022-11-21T02:39:05.528Z,67.77
2022-11-21T02:41:37.817Z,67.95
2022-11-21T02:44:13.134Z,67.52
2022-11-21T02:46:49.392Z,66.52
2022-11-21T02:49:51.096Z,67.67
2022-11-21T02:52:18.712Z,66.87
2022-11-21T02:54:47.505Z,67.04
2022-11-21T02:57:15.149Z,67.18
2022-11-21T02:59:43.477Z,66.44
2022-11-21T03:02:11.784Z,66.52
2022-11-21T03:04:42.817Z,66.64
2022-11-21T03:07:10.584Z,67.44
2022-11-21T03:09:38.744Z,67.44
2022-11-21T03:12:08.464Z,67.86
2022-11-21T03:14:37.115Z,68.84
2022-11-21T03:17:05.675Z,67.56
2022-11-21T03:19:33.372Z,67.96
2022-11-21T03:22:20.846Z,67.22
2022-11-21T03:24:49.037Z,66.99
2022-11-21T03:27:17.181Z,66.82
2022-11-21T03:29:45.131Z,66.59
2022-11-21T03:32:13.076Z,66.71
2022-11-21T03:34:40.949Z,66.60
2022-11-21T03:37:08.902Z,66.36
2022-11-21T03:39:36.815Z,66.68
2022-11-21T03:42:04.684Z,66.77
2022-11-21T03:44:32.294Z,66.55
2022-11-21T03:47:00.537Z,67.43
2022-11-21T03:49:28.298Z,68.74
2022-11-21T03:51:56.216Z,68.58
2022-11-21T03:54:24.340Z,70.05
2022-11-21T03:56:52.007Z,69.27
2022-11-21T03:59:19.655Z,68.59
2022-11-21T04:01:47.910Z,68.33
2022-11-21T04:04:15.872Z,67.93
2022-11-21T04:06:43.694Z,67.62
2022-11-21T04:09:11.898Z,68.80
2022-11-21T04:11:39.882Z,70.73
2022-11-21T04:14:07.725Z,69.50
2022-11-21T04:16:35.648Z,71.84
2022-11-21T04:19:03.693Z,70.82
2022-11-21T04:21:31.607Z,70.22
2022-11-21T04:23:59.340Z,68.77
2022-11-21T04:26:27.317Z,69.81
2022-11-21T04:28:58.836Z,70.30
2022-11-21T04:31:26.422Z,70.96
2022-11-21T04:33:54.620Z,70.91
2022-11-21T04:36:23.925Z,69.53
2022-11-21T04:38:52.317Z,68.63
2022-11-21T04:41:20.354Z,69.32
2022-11-21T04:43:47.956Z,68.96
2022-11-21T04:46:15.508Z,68.36
2022-11-21T04:48:43.638Z,67.73
2022-11-21T04:51:11.537Z,68.00
2022-11-21T04:53:42.897Z,67.19
2022-11-21T04:56:14.726Z,67.20
2022-11-21T04:58:45.613Z,67.25
2022-11-21T05:01:13.699Z,67.03
2022-11-21T05:03:41.368Z,66.84
2022-11-21T05:06:09.263Z,66.23
2022-11-21T05:08:37.784Z,66.19
2022-11-21T05:11:24.809Z,66.13
2022-11-21T05:13:54.308Z,65.92
2022-11-21T05:16:22.197Z,65.35
2022-11-21T05:18:49.813Z,65.38
2022-11-21T05:21:17.919Z,65.32
2022-11-21T05:23:45.799Z,65.42
2022-11-21T05:26:13.592Z,65.27
2022-11-21T05:28:41.618Z,65.49
2022-11-21T05:31:09.220Z,65.60
2022-11-21T05:33:36.908Z,65.76
2022-11-21T05:36:05.346Z,65.59
2022-11-21T05:38:34.594Z,65.27
2022-11-21T05:41:02.956Z,65.00
2022-11-21T05:43:45.951Z,65.30
2022-11-21T05:46:16.180Z,65.14
2022-11-21T05:48:45.560Z,65.20
2022-11-21T05:51:13.602Z,64.72
2022-11-21T05:53:43.713Z,65.13
2022-11-21T05:56:13.892Z,64.72
2022-11-21T05:58:42.365Z,64.71
2022-11-21T06:01:11.814Z,64.54
2022-11-21T06:03:44.411Z,64.33
2022-11-21T06:06:15.412Z,64.47
2022-11-21T06:08:46.062Z,64.94
2022-11-21T06:11:19.298Z,64.80
2022-11-21T06:13:47.274Z,64.97
2022-11-21T06:16:19.683Z,64.90
2022-11-21T06:18:55.126Z,65.06
2022-11-21T06:21:28.566Z,65.17
2022-11-21T06:23:59.078Z,65.35
2022-11-21T06:26:28.111Z,65.00
2022-11-21T06:29:07.375Z,65.26
2022-11-21T06:32:16.491Z,65.64
2022-11-21T06:35:08.889Z,65.28
2022-11-21T06:37:58.715Z,65.40
2022-11-21T06:41:11.140Z,65.62
2022-11-21T06:44:01.349Z,65.35
2022-11-21T06:46:30.328Z,66.05
2022-11-21T06:48:58.256Z,65.17
2022-11-21T06:51:26.275Z,65.22
2022-11-21T06:53:56.531Z,65.28
2022-11-21T06:56:29.623Z,64.92
2022-11-21T06:59:19.720Z,64.62
2022-11-21T07:02:27.550Z,64.78
2022-11-21T07:04:57.545Z,64.60
2022-11-21T07:07:25.534Z,64.54
2022-11-21T07:09:53.344Z,65.66
2022-11-21T07:13:00.000Z,65.51
2022-11-21T07:15:54.379Z,65.30
2022-11-21T07:19:23.572Z,65.41
2022-11-21T07:22:11.060Z,66.21
2022-11-21T07:24:59.470Z,66.36
2022-11-21T07:28:08.275Z,67.11
2022-11-21T07:30:56.802Z,68.77
2022-11-21T07:33:26.171Z,68.83
2022-11-21T07:36:14.217Z,68.26
2022-11-21T07:38:42.470Z,68.41
2022-11-21T07:41:10.968Z,69.19
2022-11-21T07:43:39.212Z,67.99
2022-11-21T07:46:06.845Z,68.50
2022-11-21T07:48:34.838Z,70.31
2022-11-21T07:51:05.108Z,69.20
2022-11-21T07:53:32.931Z,69.12
2022-11-21T07:56:01.266Z,68.20
2022-11-21T07:58:29.226Z,68.01
2022-11-21T08:01:16.767Z,69.59
2022-11-21T08:27:42.580Z,77.82
2022-11-21T08:30:12.614Z,76.86
2022-11-21T08:32:42.124Z,74.65
2022-11-21T08:35:10.183Z,72.60
2022-11-21T08:37:59.480Z,72.63
2022-11-21T08:40:30.591Z,72.24
2022-11-21T08:43:07.081Z,71.94
2022-11-21T08:45:37.238Z,73.08
2022-11-21T08:48:26.136Z,71.26
2022-11-21T08:51:24.323Z,72.08
2022-11-21T08:53:54.257Z,72.56
2022-11-21T08:56:22.906Z,74.83
2022-11-21T08:58:50.638Z,74.04
2022-11-21T09:01:18.848Z,75.04
2022-11-21T09:03:46.933Z,76.21
2022-11-21T09:06:14.843Z,73.96
2022-11-21T09:08:42.596Z,72.04
2022-11-21T09:11:10.820Z,72.50
2022-11-21T09:13:38.740Z,72.94
2022-11-21T09:16:33.537Z,71.57
2022-11-21T09:19:01.452Z,71.18
2022-11-21T09:21:29.570Z,71.21
2022-11-21T09:23:57.243Z,70.87
2022-11-21T09:26:25.389Z,70.50
2022-11-21T09:28:53.223Z,72.15
2022-11-21T09:31:21.300Z,70.84
2022-11-21T09:33:54.664Z,70.28
2022-11-21T09:36:22.673Z,69.25
2022-11-21T09:42:09.810Z,68.23
2022-11-21T09:45:08.118Z,68.86
2022-11-21T09:47:44.290Z,68.37
2022-11-21T09:50:12.133Z,67.53
2022-11-21T09:52:51.302Z,67.33
2022-11-21T09:55:44.145Z,70.85
2022-11-21T09:58:23.340Z,68.62
2022-11-21T10:00:52.657Z,68.36
2022-11-21T10:03:26.039Z,68.15
2022-11-21T10:05:58.310Z,67.21
2022-11-21T10:08:35.230Z,66.94
2022-11-21T10:11:29.632Z,66.76
2022-11-21T10:14:29.687Z,66.92
2022-11-21T10:17:04.166Z,66.29
2022-11-21T10:19:32.121Z,66.37
2022-11-21T10:22:32.874Z,66.29
2022-11-21T10:25:27.521Z,66.01
2022-11-21T10:28:39.709Z,65.75
2022-11-21T10:31:11.805Z,65.99
2022-11-21T10:33:40.560Z,65.62
2022-11-21T10:36:40.785Z,64.83
2022-11-21T10:39:20.170Z,64.01
2022-11-21T10:42:10.148Z,63.41
2022-11-21T10:44:56.244Z,63.43
2022-11-21T10:47:31.331Z,63.67
2022-11-21T10:50:32.950Z,63.45
2022-11-21T10:53:31.744Z,62.49
2022-11-21T10:56:04.401Z,61.41
2022-11-21T10:58:40.776Z,60.93
2022-11-21T11:01:20.507Z,60.85
2022-11-21T11:04:27.849Z,60.73
2022-11-21T11:06:53.500Z,60.04
2022-11-21T11:09:34.582Z,60.44
2022-11-21T11:12:24.104Z,60.78
2022-11-21T11:14:56.631Z,61.13
2022-11-21T11:17:31.386Z,61.40
2022-11-21T11:20:01.728Z,61.12
2022-11-21T11:22:30.446Z,60.97
2022-11-21T11:25:00.801Z,61.27
2022-11-21T11:27:30.055Z,61.48
2022-11-21T11:30:07.441Z,61.48
2022-11-21T11:32:40.997Z,61.76
2022-11-21T11:35:17.930Z,62.34
2022-11-21T11:38:10.192Z,62.54
2022-11-21T11:40:44.760Z,63.04
2022-11-21T11:44:10.765Z,62.83
2022-11-21T11:47:03.133Z,62.91
2022-11-21T11:49:54.684Z,63.06
2022-11-21T11:52:25.828Z,63.18
2022-11-21T11:55:03.518Z,63.13
2022-11-21T11:57:33.041Z,63.91
2022-11-21T12:00:30.655Z,64.06
2022-11-21T12:03:15.550Z,63.94
2022-11-21T12:06:32.413Z,64.30
2022-11-21T12:09:22.248Z,64.20
2022-11-21T12:12:09.455Z,64.05
2022-11-21T12:15:11.330Z,64.29
2022-11-21T12:18:02.432Z,64.12
2022-11-21T12:20:36.905Z,64.52
2022-11-21T12:23:51.640Z,64.48
2022-11-21T12:26:20.459Z,64.55
2022-11-21T12:29:33.045Z,64.43
2022-11-21T12:32:04.548Z,64.12
2022-11-21T12:35:15.795Z,64.30
2022-11-21T12:38:21.519Z,64.10
2022-11-21T12:42:19.126Z,64.17
2022-11-21T12:45:27.439Z,63.74
2022-11-21T12:48:40.406Z,63.53
2022-11-21T12:52:02.142Z,63.18
2022-11-21T12:55:20.103Z,63.10
2022-11-21T12:58:26.341Z,63.67
2022-11-21T13:01:32.535Z,63.27
2022-11-21T13:04:04.177Z,63.21
2022-11-21T13:06:37.883Z,63.56
2022-11-21T13:09:10.080Z,63.64
2022-11-21T13:12:04.009Z,63.63
2022-11-21T13:15:27.481Z,64.06
2022-11-21T13:18:05.749Z,64.04
2022-11-21T13:20:53.806Z,63.99
2022-11-21T13:23:42.495Z,63.93
2022-11-21T13:30:18.441Z,64.36
2022-11-21T13:32:49.776Z,64.44
2022-11-21T13:35:20.329Z,63.81
2022-11-21T13:38:08.708Z,63.97
2022-11-21T13:40:38.633Z,63.56
2022-11-21T13:45:59.322Z,63.68
2022-11-21T13:48:45.472Z,64.04
2022-11-21T13:51:35.802Z,65.00
2022-11-21T13:54:40.895Z,65.09
2022-11-21T13:57:54.690Z,64.92
2022-11-21T14:00:41.202Z,65.67
2022-11-21T14:03:40.609Z,65.21
2022-11-21T14:06:32.910Z,66.07
2022-11-21T14:09:13.079Z,66.11
2022-11-21T14:11:49.873Z,66.61
2022-11-21T14:14:34.509Z,66.24
2022-11-21T14:17:20.825Z,66.42
2022-11-21T14:19:49.702Z,66.96
2022-11-21T14:22:45.857Z,68.81
2022-11-21T14:25:28.468Z,69.71
2022-11-21T14:27:56.537Z,67.94
2022-11-21T14:30:33.266Z,68.11
2022-11-21T14:33:22.691Z,68.43
2022-11-21T14:36:21.645Z,69.71
2022-11-21T14:39:13.900Z,69.61
2022-11-21T14:41:40.104Z,70.07
2022-11-21T14:44:07.692Z,70.57
2022-11-21T14:46:37.693Z,69.96
2022-11-21T14:49:18.397Z,70.84
2022-11-21T14:52:30.600Z,72.77
2022-11-21T14:55:31.027Z,71.19
2022-11-21T14:57:53.325Z,72.86
2022-11-21T15:00:57.483Z,72.74
2022-11-21T15:03:20.375Z,72.67
2022-11-21T15:06:03.965Z,73.17
2022-11-21T15:09:18.447Z,72.27
2022-11-21T15:11:36.771Z,71.47
2022-11-21T15:14:27.384Z,72.67
2022-11-21T15:16:57.828Z,75.85
2022-11-21T15:19:28.890Z,73.27
2022-11-21T15:21:59.644Z,73.14
2022-11-21T15:24:40.003Z,72.23
2022-11-21T15:27:24.455Z,72.42
2022-11-21T15:30:26.071Z,74.88
2022-11-21T15:33:07.986Z,73.41
2022-11-21T15:35:38.046Z,73.19
2022-11-21T15:38:29.687Z,73.16
2022-11-21T15:41:01.589Z,73.77
2022-11-21T15:43:40.838Z,73.22
2022-11-21T15:46:15.646Z,73.07
2022-11-21T15:48:48.070Z,72.61
2022-11-21T15:51:20.468Z,73.85
2022-11-21T15:54:00.181Z,73.01
2022-11-21T15:56:28.077Z,72.50
2022-11-21T15:58:55.844Z,73.30
2022-11-21T16:01:25.918Z,74.94
2022-11-21T16:03:57.948Z,73.88
2022-11-21T16:06:25.920Z,73.71
2022-11-21T16:08:54.509Z,74.78
2022-11-21T16:11:30.874Z,74.56
2022-11-21T16:14:01.640Z,73.96
2022-11-21T16:16:32.342Z,75.14
2022-11-21T16:19:00.604Z,74.90
2022-11-21T16:21:28.268Z,74.88
2022-11-21T16:23:56.114Z,75.32
2022-11-21T16:26:28.816Z,74.98
2022-11-21T16:29:05.349Z,74.31
2022-11-21T16:31:33.938Z,74.97
2022-11-21T16:34:01.527Z,74.92
2022-11-21T16:36:30.876Z,75.48
2022-11-21T16:39:07.851Z,76.46
2022-11-21T16:41:36.639Z,76.25
2022-11-21T16:44:04.757Z,76.46
2022-11-21T16:46:32.276Z,76.66
2022-11-21T16:49:01.959Z,76.30
2022-11-21T16:51:30.252Z,76.53
2022-11-21T16:54:01.684Z,75.84
2022-11-21T16:56:33.623Z,75.63
2022-11-21T16:59:01.388Z,76.37
2022-11-21T17:01:29.384Z,76.91
2022-11-21T17:03:59.106Z,79.33
2022-11-21T17:06:30.011Z,78.55
2022-11-21T17:09:02.115Z,76.55
2022-11-21T17:11:31.350Z,76.52
2022-11-21T17:14:06.776Z,76.04
2022-11-21T17:16:35.735Z,75.12
2022-11-21T17:19:04.903Z,75.66
2022-11-21T17:21:33.343Z,76.05
2022-11-21T17:24:01.309Z,76.82
2022-11-21T17:26:30.944Z,76.99
2022-11-21T17:29:01.344Z,75.87
2022-11-21T17:31:29.859Z,74.97
2022-11-21T17:34:01.258Z,74.94
2022-11-21T17:36:30.807Z,76.37
2022-11-21T17:38:59.032Z,77.10
2022-11-21T17:41:27.434Z,76.10
2022-11-21T17:43:57.062Z,75.96
2022-11-21T17:46:26.929Z,76.21
2022-11-21T17:48:58.409Z,75.57
2022-11-21T17:51:29.573Z,76.17
2022-11-21T17:53:58.184Z,77.31
2022-11-21T17:56:29.980Z,76.53
2022-11-21T17:58:58.249Z,76.14
2022-11-21T18:01:26.907Z,76.81
2022-11-21T18:04:00.759Z,75.88
2022-11-21T18:06:32.349Z,76.45
2022-11-21T18:09:00.351Z,75.79
2022-11-21T18:11:34.425Z,77.11
2022-11-21T18:14:07.382Z,76.22
2022-11-21T18:16:35.002Z,75.91
2022-11-21T18:19:02.653Z,75.98
2022-11-21T18:21:32.593Z,75.42
2022-11-21T18:24:00.410Z,75.93
2022-11-21T18:26:33.501Z,76.06
2022-11-21T18:31:51.464Z,74.98
2022-11-21T18:34:19.475Z,75.64
2022-11-21T18:36:47.801Z,77.00
2022-11-21T18:39:16.016Z,76.32
2022-11-21T18:41:44.216Z,77.64
2022-11-21T18:44:16.976Z,76.32
2022-11-21T18:46:47.010Z,77.18
2022-11-21T18:49:17.973Z,77.14
2022-11-21T18:51:46.396Z,76.29
2022-11-21T18:54:14.224Z,75.90
2022-11-21T18:56:42.110Z,75.05
2022-11-21T18:59:10.395Z,75.87
2022-11-21T19:01:42.129Z,75.76
2022-11-21T19:04:10.442Z,76.48
2022-11-21T19:06:38.539Z,77.02
2022-11-21T19:09:06.533Z,76.50
2022-11-21T19:11:34.659Z,77.45
2022-11-21T19:14:02.523Z,77.29
2022-11-21T19:16:31.479Z,77.83
2022-11-21T19:19:54.374Z,76.98
2022-11-21T19:21:48.562Z,77.14
2022-11-21T19:24:16.880Z,77.75
2022-11-21T19:26:44.410Z,79.92
2022-11-21T19:29:12.877Z,77.74
2022-11-21T19:31:45.633Z,77.67
2022-11-21T19:34:14.940Z,78.30
2022-11-21T19:36:45.308Z,79.03
2022-11-21T19:39:13.663Z,78.37
2022-11-21T19:41:49.635Z,78.21
2022-11-21T19:44:17.938Z,78.30
2022-11-21T19:46:48.000Z,79.91
2022-11-21T19:49:19.315Z,81.49
2022-11-21T19:51:47.556Z,81.51
2022-11-21T19:54:16.594Z,80.26
2022-11-21T19:56:44.776Z,80.86
2022-11-21T19:59:14.700Z,80.32
2022-11-21T20:01:43.394Z,79.41
2022-11-21T20:04:14.305Z,80.77
2022-11-21T20:06:43.038Z,79.51
2022-11-21T20:09:13.338Z,80.53
2022-11-21T20:11:43.300Z,79.56
2022-11-21T20:14:19.488Z,79.70
2022-11-21T20:16:51.059Z,79.23
2022-11-21T20:19:20.541Z,79.71
2022-11-21T20:21:48.640Z,80.06
2022-11-21T20:24:17.702Z,80.91
2022-11-21T20:26:45.822Z,80.26
2022-11-21T20:29:16.157Z,79.37
2022-11-21T20:31:44.998Z,79.41
2022-11-21T20:34:14.152Z,78.21
2022-11-21T20:36:42.807Z,78.80
2022-11-21T20:39:16.705Z,77.91
2022-11-21T20:41:45.701Z,78.96
2022-11-21T20:47:10.718Z,78.74
2022-11-21T20:49:38.874Z,79.25
2022-11-21T20:54:56.073Z,78.67
2022-11-21T20:57:24.001Z,79.04
2022-11-21T20:59:51.847Z,79.82
2022-11-21T21:02:20.076Z,78.93
2022-11-21T21:04:47.904Z,79.49
2022-11-21T21:07:15.882Z,78.27
2022-11-21T21:09:43.978Z,77.94
2022-11-21T21:12:11.565Z,78.69
2022-11-21T21:14:39.444Z,78.27
2022-11-21T21:17:07.343Z,77.94
2022-11-21T21:19:35.248Z,78.64
2022-11-21T21:22:04.985Z,78.71
2022-11-21T21:24:36.159Z,79.68
2022-11-21T21:27:04.103Z,78.38
2022-11-21T21:29:31.905Z,78.82
2022-11-21T21:32:00.097Z,78.56
2022-11-21T21:34:28.072Z,79.27
2022-11-21T21:36:56.129Z,80.06
2022-11-21T21:39:24.596Z,78.92
2022-11-21T21:41:52.375Z,77.78
2022-11-21T21:44:20.045Z,78.40
2022-11-21T21:46:48.228Z,77.01
2022-11-21T21:49:16.030Z,77.14
2022-11-21T21:51:43.689Z,77.95
2022-11-21T21:54:20.469Z,77.78
2022-11-21T21:56:48.373Z,78.24
2022-11-21T21:59:18.035Z,79.02
2022-11-21T22:01:46.020Z,78.34
2022-11-21T22:04:13.975Z,78.13
2022-11-21T22:06:41.635Z,78.71
2022-11-21T22:09:09.628Z,78.48
2022-11-21T22:11:38.544Z,78.24
2022-11-21T22:14:11.384Z,77.56
2022-11-21T22:16:40.067Z,77.33
2022-11-21T22:19:08.208Z,77.07
2022-11-21T22:21:37.606Z,76.94
2022-11-21T22:24:27.958Z,75.13
2022-11-21T22:26:55.681Z,75.70
2022-11-21T22:29:24.115Z,75.63
2022-11-21T22:31:51.761Z,76.30
2022-11-21T22:34:19.355Z,75.79
2022-11-21T22:36:47.296Z,74.93
2022-11-21T22:39:15.842Z,74.65
2022-11-21T22:41:43.432Z,75.54
2022-11-21T22:44:11.487Z,74.86
2022-11-21T22:46:39.082Z,78.63
2022-11-21T22:49:06.612Z,77.32
2022-11-21T22:51:34.751Z,76.42
2022-11-21T22:54:02.359Z,76.98
2022-11-21T22:56:29.961Z,77.92
2022-11-21T22:58:57.815Z,76.70
2022-11-21T23:01:26.360Z,76.50
2022-11-21T23:03:55.683Z,76.74
2022-11-21T23:06:26.147Z,76.40
2022-11-21T23:08:55.905Z,75.85
2022-11-21T23:11:27.694Z,75.29
2022-11-21T23:13:56.430Z,80.46
2022-11-21T23:16:24.950Z,78.67
2022-11-21T23:18:53.850Z,77.99
2022-11-21T23:21:21.530Z,77.87
2022-11-21T23:23:49.539Z,78.33
2022-11-21T23:26:17.383Z,78.38
2022-11-21T23:28:45.017Z,78.16
2022-11-21T23:31:12.910Z,79.85
2022-11-21T23:33:40.544Z,78.98
2022-11-21T23:36:08.432Z,79.31
2022-11-21T23:38:36.296Z,79.29
2022-11-21T23:41:03.864Z,79.27
2022-11-21T23:43:31.471Z,78.07
2022-11-21T23:45:59.508Z,78.17
2022-11-21T23:48:28.364Z,78.55
2022-11-21T23:50:55.966Z,79.50
2022-11-21T23:53:23.893Z,81.59
2022-11-21T23:55:51.559Z,81.36
2022-11-21T23:58:19.083Z,80.04
